createdAt,value
2022-10-20T00:02:53.159Z,0.20
2022-10-20T00:06:05.695Z,0.20
2022-10-20T00:09:08.145Z,0.30
2022-10-20T00:12:10.541Z,0.10
2022-10-20T00:15:12.921Z,0.20
2022-10-20T00:18:15.827Z,0.43
2022-10-20T00:21:21.204Z,0.20
2022-10-20T00:24:23.709Z,0.37
2022-10-20T00:27:26.096Z,0.20
2022-10-20T00:30:38.712Z,0.20
2022-10-20T00:33:41.256Z,0.20
2022-10-20T00:36:46.319Z,0.22
2022-10-20T00:39:51.551Z,0.20
2022-10-20T00:42:53.911Z,0.20
2022-10-20T00:45:57.727Z,0.20
2022-10-20T00:49:16.186Z,0.20
2022-10-20T00:52:22.204Z,0.20
2022-10-20T00:55:30.141Z,0.20
2022-10-20T00:58:35.686Z,0.20
2022-10-20T01:01:40.417Z,0.20
2022-10-20T01:04:43.721Z,0.20
2022-10-20T01:07:46.036Z,0.35
2022-10-20T01:11:09.688Z,0.67
2022-10-20T01:14:49.347Z,0.20
2022-10-20T01:18:03.802Z,0.13
2022-10-20T01:21:20.901Z,0.30
2022-10-20T01:24:39.196Z,0.20
2022-10-20T01:27:48.335Z,0.20
2022-10-20T01:30:59.292Z,0.20
2022-10-20T01:34:11.574Z,0.20
2022-10-20T01:37:34.442Z,0.20
2022-10-20T01:41:33.015Z,0.20
2022-10-20T01:44:37.965Z,0.10
2022-10-20T01:47:41.367Z,0.20
2022-10-20T01:50:47.431Z,0.50
2022-10-20T01:53:49.735Z,0.17
2022-10-20T01:57:10.795Z,0.20
2022-10-20T02:00:15.719Z,0.20
2022-10-20T02:03:27.183Z,0.30
2022-10-20T02:06:47.691Z,0.20
2022-10-20T02:13:07.139Z,0.47
2022-10-20T02:16:17.929Z,0.20
2022-10-20T02:19:24.730Z,0.17
2022-10-20T02:22:27.559Z,0.20
2022-10-20T02:25:30.881Z,0.15
2022-10-20T02:28:37.516Z,0.22
2022-10-20T02:31:40.053Z,0.20
2022-10-20T02:34:43.093Z,0.20
2022-10-20T02:37:45.450Z,0.10
2022-10-20T02:40:48.343Z,0.20
2022-10-20T02:43:50.670Z,0.20
2022-10-20T02:46:53.077Z,0.20
2022-10-20T02:49:55.426Z,0.27
2022-10-20T02:52:57.747Z,0.30
2022-10-20T02:56:00.098Z,0.25
2022-10-20T02:59:02.503Z,0.15
2022-10-20T03:02:05.079Z,0.20
2022-10-20T03:05:07.855Z,0.27
2022-10-20T03:08:11.783Z,0.20
2022-10-20T03:11:15.131Z,0.35
2022-10-20T03:14:17.498Z,0.40
2022-10-20T03:17:19.839Z,0.10
2022-10-20T03:20:23.071Z,0.20
2022-10-20T03:23:25.524Z,0.20
2022-10-20T03:26:27.805Z,0.10
2022-10-20T03:29:30.088Z,0.15
2022-10-20T03:32:32.639Z,0.20
2022-10-20T03:35:35.034Z,0.20
2022-10-20T03:38:37.461Z,0.20
2022-10-20T03:41:40.323Z,0.10
2022-10-20T03:44:45.042Z,0.30
2022-10-20T03:47:47.419Z,0.10
2022-10-20T03:50:52.082Z,0.77
2022-10-20T03:53:54.576Z,0.17
2022-10-20T03:56:57.154Z,0.10
2022-10-20T03:59:59.528Z,0.22
2022-10-20T04:03:01.864Z,0.97
2022-10-20T04:06:04.280Z,0.30
2022-10-20T04:09:06.664Z,0.20
2022-10-20T04:12:09.014Z,0.13
2022-10-20T04:15:11.580Z,0.25
2022-10-20T04:18:13.979Z,0.20
2022-10-20T04:21:16.383Z,0.40
2022-10-20T04:24:18.788Z,0.10
2022-10-20T04:27:21.198Z,0.20
2022-10-20T04:30:33.256Z,0.30
2022-10-20T04:33:36.147Z,0.10
2022-10-20T04:36:38.435Z,0.13
2022-10-20T04:39:41.047Z,0.20
2022-10-20T04:42:43.397Z,0.20
2022-10-20T04:45:45.669Z,0.30
2022-10-20T04:48:48.059Z,0.40
2022-10-20T04:51:50.516Z,0.10
2022-10-20T04:54:52.880Z,0.10
2022-10-20T04:57:55.240Z,0.20
2022-10-20T05:01:06.942Z,0.20
2022-10-20T05:04:10.474Z,0.20
2022-10-20T05:07:12.946Z,0.10
2022-10-20T05:10:15.321Z,0.10
2022-10-20T05:13:17.887Z,0.50
2022-10-20T05:16:20.586Z,0.28
2022-10-20T05:19:23.249Z,0.10
2022-10-20T05:22:25.626Z,0.10
2022-10-20T05:25:36.784Z,0.20
2022-10-20T05:28:42.484Z,0.20
2022-10-20T05:31:45.053Z,0.20
2022-10-20T05:34:47.631Z,0.10
2022-10-20T05:37:50.142Z,0.30
2022-10-20T05:41:09.158Z,0.10
2022-10-20T05:44:12.603Z,0.20
2022-10-20T05:47:14.998Z,0.20
2022-10-20T05:50:18.446Z,0.20
2022-10-20T05:53:20.901Z,0.20
2022-10-20T05:56:24.161Z,0.35
2022-10-20T05:59:26.507Z,0.17
2022-10-20T06:02:28.879Z,0.20
2022-10-20T06:05:31.192Z,0.20
2022-10-20T06:08:34.183Z,0.40
2022-10-20T06:11:39.518Z,0.60
2022-10-20T06:14:42.128Z,0.17
2022-10-20T06:17:46.776Z,0.40
2022-10-20T06:21:05.113Z,0.20
2022-10-20T06:24:07.538Z,0.20
2022-10-20T06:27:09.930Z,0.35
2022-10-20T06:30:12.592Z,1.58
2022-10-20T06:33:16.963Z,0.20
2022-10-20T06:36:20.329Z,0.30
2022-10-20T06:39:24.206Z,0.37
2022-10-20T06:42:26.530Z,0.28
2022-10-20T06:45:29.178Z,0.22
2022-10-20T06:48:32.113Z,0.20
2022-10-20T06:51:35.683Z,0.20
2022-10-20T06:54:37.963Z,0.50
2022-10-20T06:57:40.437Z,0.20
2022-10-20T07:00:43.921Z,0.20
2022-10-20T07:03:47.938Z,0.20
2022-10-20T07:06:50.391Z,0.30
2022-10-20T07:09:53.040Z,0.20
2022-10-20T07:12:55.511Z,0.25
2022-10-20T07:15:58.835Z,0.20
2022-10-20T07:19:02.441Z,0.20
2022-10-20T07:22:05.020Z,0.20
2022-10-20T07:25:07.912Z,0.30
2022-10-20T07:28:10.434Z,0.52
2022-10-20T07:31:15.891Z,0.20
2022-10-20T07:34:25.611Z,0.40
2022-10-20T07:37:28.929Z,0.20
2022-10-20T07:40:33.015Z,0.20
2022-10-20T07:43:36.190Z,0.28
2022-10-20T07:46:38.550Z,0.20
2022-10-20T07:49:44.828Z,0.30
2022-10-20T07:52:52.996Z,0.20
2022-10-20T07:55:55.387Z,0.20
2022-10-20T07:58:58.257Z,0.20
2022-10-20T08:02:00.996Z,0.45
2022-10-20T08:05:03.551Z,0.30
2022-10-20T08:08:05.985Z,0.40
2022-10-20T08:11:10.463Z,0.20
2022-10-20T08:14:13.265Z,0.30
2022-10-20T08:17:15.905Z,0.30
2022-10-20T08:20:27.382Z,0.20
2022-10-20T08:23:29.759Z,0.30
2022-10-20T08:26:32.069Z,0.47
2022-10-20T08:29:34.422Z,0.20
2022-10-20T08:32:37.127Z,0.38
2022-10-20T08:35:40.633Z,0.20
2022-10-20T08:38:43.772Z,0.30
2022-10-20T08:42:07.050Z,0.37
2022-10-20T08:45:17.373Z,0.40
2022-10-20T08:48:23.942Z,0.40
2022-10-20T08:51:32.586Z,0.30
2022-10-20T08:54:35.067Z,0.30
2022-10-20T08:57:37.438Z,0.30
2022-10-20T09:00:40.775Z,0.30
2022-10-20T09:03:43.549Z,0.35
2022-10-20T09:06:50.661Z,0.40
2022-10-20T09:09:57.250Z,0.30
2022-10-20T09:13:01.190Z,0.30
2022-10-20T09:16:08.140Z,0.30
2022-10-20T09:19:20.449Z,0.30
2022-10-20T09:22:25.815Z,0.30
2022-10-20T09:25:28.240Z,0.20
2022-10-20T09:28:34.978Z,0.30
2022-10-20T09:31:44.789Z,0.20
2022-10-20T09:34:47.262Z,0.30
2022-10-20T09:38:04.008Z,0.20
2022-10-20T09:41:17.078Z,0.30
2022-10-20T09:44:23.844Z,0.30
2022-10-20T09:47:27.254Z,0.28
2022-10-20T09:50:40.319Z,0.25
2022-10-20T09:53:54.041Z,0.50
2022-10-20T09:57:08.724Z,0.40
2022-10-20T10:00:36.274Z,0.30
2022-10-20T10:03:45.436Z,0.38
2022-10-20T10:06:48.428Z,0.30
2022-10-20T10:09:51.771Z,0.30
2022-10-20T10:12:57.083Z,0.20
2022-10-20T10:16:02.844Z,0.20
2022-10-20T10:19:06.101Z,0.22
2022-10-20T10:22:13.047Z,0.40
2022-10-20T10:25:21.720Z,0.40
2022-10-20T10:28:32.334Z,0.40
2022-10-20T10:31:34.705Z,0.30
2022-10-20T10:34:49.417Z,0.28
2022-10-20T10:37:52.887Z,0.35
2022-10-20T10:40:58.114Z,0.30
2022-10-20T10:44:14.565Z,0.30
2022-10-20T10:47:40.199Z,0.40
2022-10-20T10:51:01.977Z,0.30
2022-10-20T10:54:36.652Z,0.40
2022-10-20T11:01:40.242Z,0.40
2022-10-20T11:05:06.622Z,0.30
2022-10-20T11:08:12.572Z,0.38
2022-10-20T11:11:39.667Z,0.50
2022-10-20T11:15:03.024Z,0.40
2022-10-20T11:18:23.761Z,0.30
2022-10-20T11:21:47.810Z,0.30
2022-10-20T11:25:15.747Z,0.30
2022-10-20T11:28:31.203Z,0.32
2022-10-20T11:31:54.620Z,0.35
2022-10-20T11:34:57.217Z,0.30
2022-10-20T11:38:25.197Z,0.40
2022-10-20T11:41:49.882Z,0.20
2022-10-20T11:44:54.231Z,0.40
2022-10-20T11:48:22.883Z,0.30
2022-10-20T11:51:29.961Z,0.40
2022-10-20T11:54:58.580Z,0.40
2022-10-20T11:58:22.273Z,0.35
2022-10-20T12:01:41.341Z,0.40
2022-10-20T12:05:02.630Z,0.50
2022-10-20T12:08:53.737Z,0.50
2022-10-20T12:12:03.495Z,0.50
2022-10-20T12:15:21.442Z,1.15
2022-10-20T12:18:28.244Z,0.35
2022-10-20T12:21:56.172Z,0.32
2022-10-20T12:24:58.440Z,0.40
2022-10-20T12:28:25.324Z,0.37
2022-10-20T12:32:05.334Z,0.30
2022-10-20T12:35:10.552Z,0.32
2022-10-20T12:38:17.634Z,0.50
2022-10-20T12:41:29.098Z,0.70
2022-10-20T12:44:41.992Z,0.70
2022-10-20T12:48:01.177Z,0.70
2022-10-20T12:51:08.647Z,0.90
2022-10-20T12:54:31.051Z,1.00
2022-10-20T12:57:45.008Z,0.90
2022-10-20T13:00:47.561Z,1.00
2022-10-20T13:03:52.671Z,1.10
2022-10-20T13:06:55.017Z,1.10
2022-10-20T13:10:00.373Z,0.90
2022-10-20T13:13:05.939Z,0.93
2022-10-20T13:16:16.722Z,1.20
2022-10-20T13:19:25.689Z,1.20
2022-10-20T13:22:34.160Z,1.52
2022-10-20T13:25:49.016Z,1.35
2022-10-20T13:28:54.939Z,1.02
2022-10-20T13:32:19.591Z,0.97
2022-10-20T13:35:24.846Z,0.50
2022-10-20T13:38:43.634Z,0.50
2022-10-20T13:41:51.864Z,0.60
2022-10-20T13:45:31.839Z,0.60
2022-10-20T13:48:39.948Z,0.30
2022-10-20T13:51:49.650Z,0.50
2022-10-20T13:54:52.378Z,0.57
2022-10-20T13:57:57.344Z,0.30
2022-10-20T14:01:04.798Z,0.75
2022-10-20T14:04:28.233Z,0.30
2022-10-20T14:07:44.465Z,0.30
2022-10-20T14:11:00.192Z,0.70
2022-10-20T14:14:02.682Z,0.30
2022-10-20T14:17:07.039Z,0.50
2022-10-20T14:20:21.305Z,0.50
2022-10-20T14:23:24.918Z,0.30
2022-10-20T14:26:28.695Z,0.30
2022-10-20T14:29:33.671Z,0.30
2022-10-20T14:32:40.443Z,0.30
2022-10-20T14:35:50.291Z,0.50
2022-10-20T14:39:00.540Z,0.50
2022-10-20T14:42:24.187Z,0.30
2022-10-20T14:45:28.057Z,0.30
2022-10-20T14:48:36.015Z,0.50
2022-10-20T14:51:58.570Z,0.90
2022-10-20T14:55:01.083Z,0.40
2022-10-20T14:58:04.031Z,0.40
2022-10-20T15:01:34.148Z,0.35
2022-10-20T15:04:41.031Z,0.37
2022-10-20T15:07:43.580Z,0.30
2022-10-20T15:10:46.834Z,0.20
2022-10-20T15:13:54.425Z,0.30
2022-10-20T15:16:56.831Z,0.40
2022-10-20T15:20:19.676Z,0.40
2022-10-20T15:23:24.533Z,0.40
2022-10-20T15:26:26.942Z,0.63
2022-10-20T15:29:30.589Z,0.55
2022-10-20T15:32:33.064Z,0.82
2022-10-20T15:35:35.516Z,0.57
2022-10-20T15:38:38.360Z,1.20
2022-10-20T15:41:41.139Z,1.45
2022-10-20T15:44:43.716Z,2.83
2022-10-20T15:47:46.265Z,1.83
2022-10-20T15:50:53.335Z,2.10
2022-10-20T15:53:55.958Z,2.63
2022-10-20T15:56:58.335Z,4.13
2022-10-20T16:00:00.790Z,1.92
2022-10-20T16:03:05.052Z,1.85
2022-10-20T16:06:07.641Z,1.93
2022-10-20T16:09:13.400Z,1.63
2022-10-20T16:12:18.452Z,0.88
2022-10-20T16:15:40.681Z,1.35
2022-10-20T16:19:03.209Z,0.82
2022-10-20T16:22:26.585Z,0.67
2022-10-20T16:25:48.742Z,0.30
2022-10-20T16:29:10.938Z,0.77
2022-10-20T16:32:35.365Z,0.32
2022-10-20T16:35:44.686Z,1.05
2022-10-20T16:38:47.215Z,0.50
2022-10-20T16:41:49.535Z,0.70
2022-10-20T16:44:52.516Z,0.57
2022-10-20T16:47:55.033Z,0.70
2022-10-20T16:50:57.316Z,0.50
2022-10-20T16:54:03.321Z,0.43
2022-10-20T16:57:09.189Z,0.20
2022-10-20T17:00:12.028Z,1.17
2022-10-20T17:03:18.173Z,0.22
2022-10-20T17:06:25.236Z,0.70
2022-10-20T17:09:30.028Z,0.70
2022-10-20T17:12:32.945Z,0.50
2022-10-20T17:15:35.671Z,2.70
2022-10-20T17:18:38.348Z,1.10
2022-10-20T17:21:40.914Z,0.95
2022-10-20T17:24:43.595Z,1.10
2022-10-20T17:27:46.241Z,1.70
2022-10-20T17:30:48.878Z,1.23
2022-10-20T17:33:51.572Z,3.42
2022-10-20T17:36:54.163Z,1.52
2022-10-20T17:39:57.735Z,2.00
2022-10-20T17:43:00.943Z,1.23
2022-10-20T17:46:09.514Z,2.38
2022-10-20T17:49:11.817Z,1.17
2022-10-20T17:52:14.392Z,1.67
2022-10-20T17:55:17.285Z,1.83
2022-10-20T17:58:20.362Z,3.00
2022-10-20T18:01:31.948Z,0.90
2022-10-20T18:04:34.641Z,1.83
2022-10-20T18:07:37.216Z,3.20
2022-10-20T18:10:43.947Z,4.80
2022-10-20T18:13:48.187Z,2.20
2022-10-20T18:16:50.912Z,1.88
2022-10-20T18:19:55.196Z,3.63
2022-10-20T18:22:58.173Z,4.20
2022-10-20T18:26:09.215Z,1.00
2022-10-20T18:29:13.415Z,3.17
2022-10-20T18:32:16.613Z,0.80
2022-10-20T18:38:26.823Z,1.38
2022-10-20T18:41:33.002Z,1.03
2022-10-20T18:44:35.481Z,1.27
2022-10-20T18:47:38.257Z,0.82
2022-10-20T18:50:43.804Z,1.52
2022-10-20T18:53:47.823Z,0.60
2022-10-20T18:56:50.455Z,0.37
2022-10-20T18:59:53.088Z,0.70
2022-10-20T19:02:58.012Z,1.42
2022-10-20T19:06:10.599Z,0.80
2022-10-20T19:09:17.157Z,1.30
2022-10-20T19:12:19.777Z,1.23
2022-10-20T19:15:22.409Z,1.03
2022-10-20T19:18:26.916Z,1.15
2022-10-20T19:21:30.122Z,1.05
2022-10-20T19:24:32.422Z,1.58
2022-10-20T19:27:35.049Z,0.53
2022-10-20T19:30:37.609Z,1.00
2022-10-20T19:33:40.632Z,2.95
2022-10-20T19:36:46.705Z,1.30
2022-10-20T19:39:49.278Z,1.73
2022-10-20T19:42:51.812Z,1.13
2022-10-20T19:45:54.462Z,0.60
2022-10-20T19:48:57.553Z,1.05
2022-10-20T19:52:00.316Z,1.25
2022-10-20T19:55:03.447Z,1.52
2022-10-20T19:58:06.059Z,0.67
2022-10-20T20:01:09.729Z,1.23
2022-10-20T20:04:12.384Z,0.30
2022-10-20T20:07:14.986Z,0.32
2022-10-20T20:10:17.518Z,0.73
2022-10-20T20:13:20.765Z,0.30
2022-10-20T20:16:51.681Z,1.47
2022-10-20T20:19:54.388Z,0.77
2022-10-20T20:22:57.050Z,0.60
2022-10-20T20:31:10.673Z,0.30
2022-10-20T20:34:13.028Z,0.43
2022-10-20T20:37:15.654Z,0.30
2022-10-20T20:40:18.705Z,0.40
2022-10-20T20:43:21.146Z,0.35
2022-10-20T20:46:24.822Z,0.27
2022-10-20T20:49:27.214Z,0.40
2022-10-20T20:52:29.821Z,0.40
2022-10-20T20:55:34.830Z,0.20
2022-10-20T20:58:38.961Z,0.43
2022-10-20T21:01:42.164Z,0.67
2022-10-20T21:04:44.521Z,0.30
2022-10-20T21:07:47.114Z,0.22
2022-10-20T21:10:49.397Z,0.20
2022-10-20T21:13:53.931Z,0.57
2022-10-20T21:16:56.775Z,1.23
2022-10-20T21:19:59.225Z,0.63
2022-10-20T21:23:01.586Z,0.73
2022-10-20T21:26:04.096Z,0.20
2022-10-20T21:29:06.609Z,0.35
2022-10-20T21:32:08.895Z,0.30
2022-10-20T21:35:11.242Z,1.50
2022-10-20T21:38:13.561Z,0.35
2022-10-20T21:41:23.926Z,0.50
2022-10-20T21:44:26.288Z,0.40
2022-10-20T21:47:28.749Z,0.30
2022-10-20T21:50:34.620Z,0.10
2022-10-20T21:53:37.438Z,0.20
2022-10-20T21:56:41.680Z,0.20
2022-10-20T21:59:50.341Z,0.57
2022-10-20T22:02:52.712Z,0.43
2022-10-20T22:05:55.159Z,0.20
2022-10-20T22:08:58.914Z,0.20
2022-10-20T22:12:01.382Z,0.20
2022-10-20T22:15:08.449Z,0.30
2022-10-20T22:18:10.806Z,0.20
2022-10-20T22:21:15.822Z,0.40
2022-10-20T22:24:21.036Z,0.30
2022-10-20T22:27:41.532Z,0.43
2022-10-20T22:30:44.360Z,0.20
2022-10-20T22:33:46.763Z,0.20
2022-10-20T22:36:49.161Z,1.10
2022-10-20T22:39:51.479Z,0.43
2022-10-20T22:42:53.793Z,0.20
2022-10-20T22:45:56.683Z,0.20
2022-10-20T22:52:06.500Z,1.07
2022-10-20T22:55:08.984Z,0.65
2022-10-20T22:58:11.801Z,1.15
2022-10-20T23:01:20.526Z,0.30
2022-10-20T23:04:22.852Z,1.37
2022-10-20T23:07:25.284Z,0.20
2022-10-20T23:10:28.027Z,0.63
2022-10-20T23:13:30.313Z,1.05
2022-10-20T23:16:32.704Z,0.30
2022-10-20T23:19:35.024Z,0.20
2022-10-20T23:22:37.525Z,0.87
2022-10-20T23:25:41.425Z,1.10
2022-10-20T23:28:44.185Z,0.17
2022-10-20T23:31:46.876Z,0.10
2022-10-20T23:34:49.283Z,0.40
2022-10-20T23:37:51.699Z,0.20
2022-10-20T23:40:54.079Z,1.10
2022-10-20T23:43:56.407Z,0.45
2022-10-20T23:46:58.796Z,0.25
2022-10-20T23:50:01.086Z,0.20
2022-10-20T23:53:03.433Z,0.30
2022-10-20T23:56:06.036Z,0.20
2022-10-20T23:59:08.474Z,0.20
